createdAt,value
2019-03-25T00:01:30.801Z,61.33
2019-03-25T00:04:00.393Z,61.53
2019-03-25T00:06:29.922Z,61.34
2019-03-25T00:09:05.295Z,61.50
2019-03-25T00:11:30.848Z,61.40
2019-03-25T00:14:00.364Z,61.58
2019-03-25T00:16:29.972Z,61.50
2019-03-25T00:18:59.557Z,61.50
2019-03-25T00:21:29.168Z,61.67
2019-03-25T00:23:58.757Z,61.75
2019-03-25T00:26:28.378Z,61.83
2019-03-25T00:28:57.968Z,61.76
2019-03-25T00:31:27.592Z,62.12
2019-03-25T00:33:57.185Z,62.37
2019-03-25T00:36:26.791Z,62.57
2019-03-25T00:38:56.388Z,62.49
2019-03-25T00:41:25.995Z,62.42
2019-03-25T00:43:55.583Z,62.45
2019-03-25T00:46:25.188Z,62.21
2019-03-25T00:48:54.777Z,62.31
2019-03-25T00:51:24.389Z,62.69
2019-03-25T00:53:53.998Z,62.92
2019-03-25T00:56:23.614Z,62.97
2019-03-25T00:58:53.234Z,62.85
2019-03-25T01:01:22.870Z,62.83
2019-03-25T01:03:52.381Z,62.90
2019-03-25T01:06:21.983Z,62.96
2019-03-25T01:08:51.573Z,63.08
2019-03-25T01:11:21.120Z,63.33
2019-03-25T01:13:50.637Z,63.54
2019-03-25T01:16:20.242Z,63.79
2019-03-25T01:18:49.837Z,64.03
2019-03-25T01:21:19.358Z,64.07
2019-03-25T01:23:48.963Z,64.22
2019-03-25T01:26:18.546Z,64.48
2019-03-25T01:28:48.164Z,64.74
2019-03-25T01:31:17.750Z,64.87
2019-03-25T01:33:47.209Z,64.92
2019-03-25T01:36:16.791Z,64.97
2019-03-25T01:38:46.332Z,65.07
2019-03-25T01:41:15.938Z,65.17
2019-03-25T01:43:45.470Z,65.14
2019-03-25T01:46:15.059Z,65.26
2019-03-25T01:48:44.528Z,65.34
2019-03-25T01:51:14.077Z,65.34
2019-03-25T01:53:43.699Z,65.40
2019-03-25T01:56:13.294Z,65.46
2019-03-25T01:58:42.828Z,65.49
2019-03-25T02:01:12.449Z,65.46
2019-03-25T02:03:41.982Z,65.47
2019-03-25T02:06:11.571Z,65.43
2019-03-25T02:08:41.185Z,65.56
2019-03-25T02:11:10.795Z,65.54
2019-03-25T02:13:40.255Z,65.46
2019-03-25T02:16:09.859Z,65.42
2019-03-25T02:18:39.395Z,65.53
2019-03-25T02:21:10.191Z,65.67
2019-03-25T02:23:39.798Z,65.73
2019-03-25T02:26:09.327Z,65.83
2019-03-25T02:28:38.863Z,65.82
2019-03-25T02:31:08.392Z,65.80
2019-03-25T02:33:38.004Z,65.67
2019-03-25T02:36:10.715Z,65.71
2019-03-25T02:38:40.264Z,65.88
2019-03-25T02:41:09.856Z,66.01
2019-03-25T02:43:39.398Z,66.15
2019-03-25T02:46:08.927Z,66.28
2019-03-25T02:48:38.691Z,66.51
2019-03-25T02:51:08.308Z,66.65
2019-03-25T02:53:37.855Z,66.69
2019-03-25T02:56:07.450Z,66.84
2019-03-25T02:58:37.080Z,66.94
2019-03-25T03:01:06.688Z,67.20
2019-03-25T03:03:36.235Z,67.43
2019-03-25T03:06:05.930Z,67.72
2019-03-25T03:08:35.560Z,67.72
2019-03-25T03:11:05.161Z,67.94
2019-03-25T03:13:34.785Z,67.99
2019-03-25T03:16:04.370Z,68.09
2019-03-25T03:18:33.959Z,68.11
2019-03-25T03:21:03.543Z,68.03
2019-03-25T03:23:33.162Z,67.99
2019-03-25T03:26:02.820Z,67.95
2019-03-25T03:28:32.481Z,67.98
2019-03-25T03:31:02.149Z,67.88
2019-03-25T03:33:31.762Z,67.86
2019-03-25T03:36:01.297Z,67.70
2019-03-25T03:38:30.847Z,67.58
2019-03-25T03:41:00.453Z,67.42
2019-03-25T03:43:30.098Z,67.38
2019-03-25T03:45:59.816Z,67.11
2019-03-25T03:48:29.437Z,67.15
2019-03-25T03:50:59.149Z,66.86
2019-03-25T03:53:28.763Z,66.77
2019-03-25T03:56:11.964Z,66.64
2019-03-25T03:58:31.536Z,66.21
2019-03-25T04:01:01.169Z,66.31
2019-03-25T04:03:30.703Z,66.11
2019-03-25T04:06:00.345Z,66.22
2019-03-25T04:08:29.973Z,65.96
2019-03-25T04:10:59.577Z,65.52
2019-03-25T04:13:29.199Z,65.67
2019-03-25T04:16:01.424Z,65.94
2019-03-25T04:18:30.147Z,66.12
2019-03-25T04:20:59.743Z,66.53
2019-03-25T04:23:29.419Z,66.60
2019-03-25T04:25:59.021Z,66.75
2019-03-25T04:28:28.649Z,66.96
2019-03-25T04:30:58.258Z,67.08
2019-03-25T04:33:27.887Z,66.84
2019-03-25T04:35:57.493Z,68.22
2019-03-25T04:38:27.131Z,68.98
2019-03-25T04:40:56.726Z,70.51
2019-03-25T04:43:26.362Z,71.38
2019-03-25T04:45:55.967Z,71.65
2019-03-25T04:48:25.527Z,72.54
2019-03-25T04:50:55.118Z,72.46
2019-03-25T04:53:24.750Z,72.61
2019-03-25T04:55:54.365Z,73.01
2019-03-25T04:58:23.982Z,73.11
2019-03-25T05:00:53.601Z,73.24
2019-03-25T05:03:23.228Z,73.45
2019-03-25T05:05:52.837Z,73.56
2019-03-25T05:08:22.388Z,73.76
2019-03-25T05:10:51.988Z,73.93
2019-03-25T05:13:21.543Z,74.25
2019-03-25T05:15:51.159Z,74.64
2019-03-25T05:18:20.808Z,74.95
2019-03-25T05:20:50.416Z,75.65
2019-03-25T05:23:20.045Z,76.04
2019-03-25T05:25:49.646Z,76.64
2019-03-25T05:28:19.285Z,76.87
2019-03-25T05:30:48.879Z,76.92
2019-03-25T05:33:18.492Z,77.24
2019-03-25T05:35:48.119Z,77.50
2019-03-25T05:38:17.735Z,77.71
2019-03-25T05:40:47.372Z,77.84
2019-03-25T05:43:16.969Z,78.12
2019-03-25T05:45:46.588Z,78.22
2019-03-25T05:48:16.207Z,78.46
2019-03-25T05:50:45.830Z,78.51
2019-03-25T05:53:15.427Z,78.61
2019-03-25T05:55:45.051Z,78.67
2019-03-25T05:58:14.660Z,78.70
2019-03-25T06:00:44.321Z,78.79
2019-03-25T06:03:13.766Z,78.83
2019-03-25T06:05:43.392Z,78.73
2019-03-25T06:08:12.917Z,78.74
2019-03-25T06:10:42.545Z,78.98
2019-03-25T06:13:12.156Z,79.00
2019-03-25T06:15:41.778Z,78.88
2019-03-25T06:18:11.302Z,78.85
2019-03-25T06:20:40.947Z,78.84
2019-03-25T06:23:10.556Z,78.98
2019-03-25T06:25:40.188Z,79.07
2019-03-25T06:28:09.793Z,79.06
2019-03-25T06:30:39.416Z,79.04
2019-03-25T06:33:12.601Z,79.13
2019-03-25T06:35:40.383Z,79.03
2019-03-25T06:38:10.004Z,79.18
2019-03-25T06:40:39.614Z,79.35
2019-03-25T06:43:09.141Z,79.42
2019-03-25T06:45:38.783Z,79.29
2019-03-25T06:48:08.391Z,79.36
2019-03-25T06:50:38.013Z,79.25
2019-03-25T06:53:07.619Z,79.27
2019-03-25T06:55:37.239Z,79.53
2019-03-25T06:58:06.865Z,79.85
2019-03-25T07:00:36.525Z,79.79
2019-03-25T07:03:06.137Z,79.56
2019-03-25T07:05:35.761Z,79.22
2019-03-25T07:08:05.372Z,79.08
2019-03-25T07:10:35.992Z,78.55
2019-03-25T07:13:06.195Z,77.96
2019-03-25T07:15:35.822Z,77.89
2019-03-25T07:18:06.605Z,77.84
2019-03-25T07:20:36.233Z,77.38
2019-03-25T07:23:06.042Z,76.45
2019-03-25T07:25:35.662Z,76.07
2019-03-25T07:28:05.264Z,76.13
2019-03-25T07:30:34.905Z,76.44
2019-03-25T07:33:04.499Z,76.59
2019-03-25T07:35:34.120Z,76.08
2019-03-25T07:38:03.637Z,76.22
2019-03-25T07:40:33.269Z,76.31
2019-03-25T07:43:02.885Z,75.87
2019-03-25T07:45:32.510Z,74.64
2019-03-25T07:48:04.071Z,74.24
2019-03-25T07:50:33.453Z,74.27
2019-03-25T07:53:03.047Z,73.41
2019-03-25T07:55:32.691Z,73.46
2019-03-25T07:58:02.317Z,72.72
2019-03-25T08:00:31.961Z,72.64
2019-03-25T08:03:01.579Z,71.25
2019-03-25T08:05:31.210Z,71.37
2019-03-25T08:08:00.824Z,71.04
2019-03-25T08:10:36.472Z,70.57
2019-03-25T08:13:06.213Z,70.98
2019-03-25T08:15:35.891Z,71.10
2019-03-25T08:18:06.030Z,70.67
2019-03-25T08:20:35.648Z,70.46
2019-03-25T08:23:05.260Z,70.36
2019-03-25T08:25:35.143Z,70.41
2019-03-25T08:28:04.755Z,68.29
2019-03-25T08:30:34.468Z,69.08
2019-03-25T08:33:04.075Z,69.27
2019-03-25T08:35:33.786Z,68.68
2019-03-25T08:38:03.383Z,68.83
2019-03-25T08:40:33.002Z,68.58
2019-03-25T08:43:02.599Z,68.81
2019-03-25T08:45:32.213Z,70.05
2019-03-25T08:48:01.811Z,68.28
2019-03-25T08:50:31.442Z,67.83
2019-03-25T08:53:01.036Z,65.95
2019-03-25T08:55:30.650Z,66.11
2019-03-25T08:58:11.442Z,66.54
2019-03-25T09:00:32.115Z,66.57
2019-03-25T09:03:01.720Z,65.90
2019-03-25T09:05:31.347Z,66.17
2019-03-25T09:08:00.943Z,67.02
2019-03-25T09:10:30.585Z,66.18
2019-03-25T09:13:00.196Z,65.93
2019-03-25T09:15:29.822Z,65.04
2019-03-25T09:17:59.475Z,64.38
2019-03-25T09:20:29.099Z,64.76
2019-03-25T09:22:58.697Z,64.88
2019-03-25T09:25:28.311Z,64.22
2019-03-25T09:27:59.103Z,63.51
2019-03-25T09:31:18.906Z,63.81
2019-03-25T09:33:50.283Z,63.25
2019-03-25T09:36:23.394Z,61.93
2019-03-25T09:38:53.003Z,58.59
2019-03-25T09:41:22.735Z,58.37
2019-03-25T09:43:52.426Z,58.97
2019-03-25T09:46:22.170Z,57.69
2019-03-25T09:48:51.901Z,58.02
2019-03-25T09:51:21.515Z,56.94
2019-03-25T09:53:51.107Z,56.72
2019-03-25T09:56:21.224Z,56.88
2019-03-25T09:58:50.819Z,57.01
2019-03-25T10:01:20.471Z,56.70
2019-03-25T10:03:50.069Z,57.33
2019-03-25T10:06:19.701Z,57.97
2019-03-25T10:08:49.307Z,57.88
2019-03-25T10:11:18.933Z,58.01
2019-03-25T10:13:48.529Z,58.95
2019-03-25T10:16:18.150Z,59.74
2019-03-25T10:18:48.148Z,60.40
2019-03-25T10:21:17.776Z,60.76
2019-03-25T10:23:47.406Z,61.08
2019-03-25T10:26:17.019Z,60.03
2019-03-25T10:28:48.894Z,60.80
2019-03-25T10:31:17.988Z,61.66
2019-03-25T10:33:47.608Z,61.40
2019-03-25T10:36:17.233Z,61.75
2019-03-25T10:38:46.841Z,62.53
2019-03-25T10:41:16.475Z,62.60
2019-03-25T10:43:46.059Z,63.08
2019-03-25T10:46:15.699Z,62.53
2019-03-25T10:48:45.298Z,62.21
2019-03-25T10:51:14.915Z,61.48
2019-03-25T10:53:44.525Z,62.28
2019-03-25T10:56:14.149Z,61.71
2019-03-25T10:58:43.677Z,60.14
2019-03-25T11:01:13.427Z,60.82
2019-03-25T11:03:42.935Z,60.31
2019-03-25T11:06:12.559Z,60.36
2019-03-25T11:08:42.171Z,60.65
2019-03-25T11:11:11.792Z,60.71
2019-03-25T11:13:41.410Z,60.80
2019-03-25T11:16:11.033Z,60.10
2019-03-25T11:18:40.575Z,59.80
2019-03-25T11:21:10.199Z,59.21
2019-03-25T11:23:39.894Z,57.66
2019-03-25T11:26:09.523Z,58.57
2019-03-25T11:28:39.136Z,58.64
2019-03-25T11:31:08.747Z,57.80
2019-03-25T11:33:38.350Z,59.02
2019-03-25T11:36:08.056Z,57.14
2019-03-25T11:38:37.699Z,57.32
2019-03-25T11:41:07.323Z,56.91
2019-03-25T11:43:36.948Z,57.04
2019-03-25T11:46:06.567Z,56.65
2019-03-25T11:48:36.195Z,55.89
2019-03-25T11:51:05.821Z,55.22
2019-03-25T11:53:35.446Z,55.26
2019-03-25T11:56:05.412Z,55.33
2019-03-25T11:58:35.035Z,55.30
2019-03-25T12:01:04.675Z,55.60
2019-03-25T12:03:34.303Z,56.89
2019-03-25T12:06:03.899Z,57.94
2019-03-25T12:08:33.530Z,58.61
2019-03-25T12:11:03.045Z,58.96
2019-03-25T12:13:32.676Z,59.44
2019-03-25T12:16:02.308Z,59.79
2019-03-25T12:18:31.933Z,60.26
2019-03-25T12:21:01.536Z,60.63
2019-03-25T12:23:31.175Z,61.42
2019-03-25T12:26:00.776Z,61.73
2019-03-25T12:28:30.381Z,62.42
2019-03-25T12:30:59.978Z,61.98
2019-03-25T12:33:29.611Z,61.43
2019-03-25T12:35:59.219Z,61.27
2019-03-25T12:38:28.864Z,61.29
2019-03-25T12:40:58.478Z,61.09
2019-03-25T12:43:28.097Z,60.47
2019-03-25T12:45:57.708Z,59.10
2019-03-25T12:48:27.339Z,58.13
2019-03-25T12:50:56.942Z,56.30
2019-03-25T12:53:26.550Z,55.62
2019-03-25T12:55:56.160Z,55.75
2019-03-25T12:58:25.790Z,55.53
2019-03-25T13:00:55.412Z,55.49
2019-03-25T13:03:25.034Z,54.91
2019-03-25T13:05:54.960Z,54.29
2019-03-25T13:08:32.796Z,53.21
2019-03-25T13:10:55.911Z,53.37
2019-03-25T13:13:25.535Z,53.98
2019-03-25T13:15:55.144Z,54.03
2019-03-25T13:18:24.697Z,54.64
2019-03-25T13:20:54.309Z,54.44
2019-03-25T13:23:23.937Z,53.61
2019-03-25T13:25:53.590Z,52.85
2019-03-25T13:28:23.164Z,53.15
2019-03-25T13:30:52.774Z,53.14
2019-03-25T13:33:22.386Z,52.22
2019-03-25T13:35:51.993Z,52.85
2019-03-25T13:38:21.622Z,54.73
2019-03-25T13:40:51.216Z,57.32
2019-03-25T13:43:20.765Z,59.16
2019-03-25T13:45:50.382Z,60.19
2019-03-25T13:48:20.014Z,61.81
2019-03-25T13:50:49.653Z,63.01
2019-03-25T13:53:19.201Z,64.11
2019-03-25T13:55:48.725Z,64.82
2019-03-25T13:58:18.357Z,64.94
2019-03-25T14:00:47.981Z,63.92
2019-03-25T14:03:17.537Z,63.20
2019-03-25T14:05:47.145Z,63.21
2019-03-25T14:08:16.774Z,64.05
2019-03-25T14:10:46.380Z,64.66
2019-03-25T14:13:16.000Z,63.92
2019-03-25T14:15:45.601Z,63.31
2019-03-25T14:18:15.227Z,62.71
2019-03-25T14:20:44.835Z,61.39
2019-03-25T14:23:14.445Z,60.65
2019-03-25T14:25:44.057Z,60.56
2019-03-25T14:28:13.678Z,60.79
2019-03-25T14:30:43.269Z,59.53
2019-03-25T14:33:12.897Z,57.63
2019-03-25T14:35:42.500Z,56.36
2019-03-25T14:38:12.118Z,55.51
2019-03-25T14:40:41.636Z,55.56
2019-03-25T14:43:11.254Z,54.45
2019-03-25T14:45:40.877Z,54.95
2019-03-25T14:48:10.501Z,54.82
2019-03-25T14:50:40.105Z,54.12
2019-03-25T14:53:09.725Z,53.77
2019-03-25T14:55:39.332Z,53.78
2019-03-25T14:58:08.944Z,53.57
2019-03-25T15:00:38.617Z,53.75
2019-03-25T15:03:08.235Z,53.14
2019-03-25T15:05:37.833Z,52.20
2019-03-25T15:08:07.458Z,52.34
2019-03-25T15:10:37.055Z,52.27
2019-03-25T15:13:06.682Z,51.60
2019-03-25T15:15:36.498Z,51.64
2019-03-25T15:18:15.183Z,51.51
2019-03-25T15:20:37.452Z,50.67
2019-03-25T15:23:07.085Z,50.50
2019-03-25T15:25:36.715Z,50.37
2019-03-25T15:28:06.379Z,50.30
2019-03-25T15:30:36.518Z,50.42
2019-03-25T15:33:06.318Z,50.38
2019-03-25T15:35:35.929Z,50.34
2019-03-25T15:38:05.555Z,48.88
2019-03-25T15:40:35.352Z,48.94
2019-03-25T15:43:04.964Z,48.53
2019-03-25T15:45:34.586Z,48.28
2019-03-25T15:48:04.242Z,47.13
2019-03-25T15:50:33.865Z,48.03
2019-03-25T15:53:03.483Z,47.76
2019-03-25T15:55:33.111Z,48.04
2019-03-25T15:58:02.720Z,48.65
2019-03-25T16:00:32.372Z,49.16
2019-03-25T16:03:02.845Z,48.88
2019-03-25T16:05:32.482Z,48.63
2019-03-25T16:08:01.998Z,49.17
2019-03-25T16:10:31.620Z,48.58
2019-03-25T16:13:01.254Z,49.21
2019-03-25T16:15:41.965Z,49.49
2019-03-25T16:18:18.960Z,50.00
2019-03-25T16:20:48.563Z,49.63
2019-03-25T16:23:18.165Z,50.15
2019-03-25T16:25:47.789Z,51.18
2019-03-25T16:28:17.396Z,52.95
2019-03-25T16:30:57.965Z,54.04
2019-03-25T16:33:18.329Z,55.23
2019-03-25T16:35:47.873Z,56.42
2019-03-25T16:38:17.474Z,56.97
2019-03-25T16:40:47.108Z,57.60
2019-03-25T16:43:16.691Z,58.05
2019-03-25T16:45:46.327Z,58.51
2019-03-25T16:48:15.932Z,58.92
2019-03-25T16:50:45.888Z,59.45
2019-03-25T16:53:15.489Z,59.75
2019-03-25T16:55:45.040Z,60.00
2019-03-25T16:58:14.572Z,60.23
2019-03-25T17:00:44.229Z,60.33
2019-03-25T17:03:13.833Z,60.63
2019-03-25T17:05:43.455Z,61.03
2019-03-25T17:08:12.903Z,61.15
2019-03-25T17:10:42.581Z,61.31
2019-03-25T17:13:12.186Z,61.55
2019-03-25T17:15:41.813Z,61.55
2019-03-25T17:18:11.409Z,61.70
2019-03-25T17:20:40.988Z,61.73
2019-03-25T17:23:10.577Z,61.94
2019-03-25T17:25:40.625Z,61.45
2019-03-25T17:28:10.184Z,61.43
2019-03-25T17:30:39.818Z,61.31
2019-03-25T17:33:09.334Z,61.64
2019-03-25T17:35:38.872Z,63.19
2019-03-25T17:38:08.491Z,63.57
2019-03-25T17:40:38.111Z,63.51
2019-03-25T17:43:07.717Z,62.32
2019-03-25T17:45:37.341Z,61.91
2019-03-25T17:48:06.951Z,61.89
2019-03-25T17:50:36.588Z,62.00
2019-03-25T17:53:06.184Z,62.29
2019-03-25T17:55:35.907Z,62.37
2019-03-25T17:58:08.111Z,62.75
2019-03-25T18:01:09.348Z,62.98
2019-03-25T18:03:39.022Z,63.26
2019-03-25T18:06:08.651Z,63.55
2019-03-25T18:08:38.251Z,63.73
2019-03-25T18:11:07.953Z,63.92
2019-03-25T18:13:37.548Z,64.04
2019-03-25T18:16:07.259Z,64.29
2019-03-25T18:18:36.869Z,64.39
2019-03-25T18:21:06.594Z,64.36
2019-03-25T18:23:36.202Z,64.60
2019-03-25T18:26:05.855Z,64.75
2019-03-25T18:28:35.467Z,64.99
2019-03-25T18:31:05.016Z,65.55
2019-03-25T18:33:34.602Z,66.06
2019-03-25T18:36:04.266Z,66.37
2019-03-25T18:38:33.876Z,66.64
2019-03-25T18:41:03.756Z,66.72
2019-03-25T18:43:33.370Z,66.91
2019-03-25T18:46:02.997Z,67.17
2019-03-25T18:48:32.612Z,67.35
2019-03-25T18:51:03.084Z,67.53
2019-03-25T18:53:32.689Z,67.71
2019-03-25T18:56:02.310Z,67.72
2019-03-25T18:58:31.932Z,67.76
2019-03-25T19:01:01.876Z,67.88
2019-03-25T19:03:32.683Z,67.98
2019-03-25T19:06:02.612Z,67.90
2019-03-25T19:08:32.748Z,68.03
2019-03-25T19:11:02.391Z,68.19
2019-03-25T19:13:32.389Z,68.45
2019-03-25T19:16:02.729Z,68.55
2019-03-25T19:18:33.037Z,68.69
2019-03-25T19:21:02.656Z,68.71
2019-03-25T19:23:32.267Z,69.06
2019-03-25T19:26:01.880Z,69.18
2019-03-25T19:28:31.488Z,69.43
2019-03-25T19:31:01.037Z,69.54
2019-03-25T19:33:30.613Z,69.61
2019-03-25T19:36:00.237Z,69.65
2019-03-25T19:38:30.334Z,69.79
2019-03-25T19:41:00.732Z,69.80
2019-03-25T19:43:30.351Z,69.88
2019-03-25T19:46:00.148Z,70.06
2019-03-25T19:48:29.646Z,70.16
2019-03-25T19:50:59.299Z,70.22
2019-03-25T19:53:28.909Z,70.46
2019-03-25T19:55:58.517Z,70.52
2019-03-25T19:58:28.045Z,70.64
2019-03-25T20:00:57.714Z,70.73
2019-03-25T20:03:27.288Z,70.71
2019-03-25T20:05:56.945Z,70.49
2019-03-25T20:08:26.547Z,70.62
2019-03-25T20:10:56.162Z,70.69
2019-03-25T20:13:25.640Z,70.67
2019-03-25T20:15:55.238Z,70.79
2019-03-25T20:18:24.813Z,70.72
2019-03-25T20:20:54.428Z,70.79
2019-03-25T20:23:24.030Z,70.79
2019-03-25T20:25:53.633Z,70.93
2019-03-25T20:28:23.309Z,71.01
2019-03-25T20:30:52.976Z,71.18
2019-03-25T20:33:22.569Z,71.34
2019-03-25T20:35:52.196Z,71.43
2019-03-25T20:38:21.797Z,71.59
2019-03-25T20:40:51.417Z,71.75
2019-03-25T20:43:20.957Z,71.91
2019-03-25T20:45:50.625Z,71.98
2019-03-25T20:48:20.259Z,72.14
2019-03-25T20:50:49.875Z,72.24
2019-03-25T20:53:19.487Z,72.36
2019-03-25T20:55:49.029Z,72.34
2019-03-25T20:58:18.642Z,72.38
2019-03-25T21:00:50.010Z,72.36
2019-03-25T21:03:19.771Z,72.39
2019-03-25T21:05:49.359Z,72.32
2019-03-25T21:08:19.070Z,72.43
2019-03-25T21:10:48.707Z,72.42
2019-03-25T21:13:18.568Z,72.40
2019-03-25T21:15:48.160Z,72.45
2019-03-25T21:18:17.776Z,72.45
2019-03-25T21:20:47.359Z,72.40
2019-03-25T21:23:16.998Z,72.37
2019-03-25T21:25:46.692Z,72.35
2019-03-25T21:28:16.351Z,72.17
2019-03-25T21:30:48.306Z,72.19
2019-03-25T21:33:17.268Z,72.20
2019-03-25T21:35:46.875Z,72.24
2019-03-25T21:38:16.671Z,72.13
2019-03-25T21:40:46.277Z,72.09
2019-03-25T21:43:16.047Z,72.05
2019-03-25T21:45:45.696Z,72.08
2019-03-25T21:48:15.319Z,72.25
2019-03-25T21:50:44.973Z,72.40
2019-03-25T21:53:14.541Z,72.61
2019-03-25T21:55:44.254Z,72.83
2019-03-25T21:58:13.917Z,72.89
2019-03-25T22:00:44.218Z,73.02
2019-03-25T22:03:13.807Z,73.12
2019-03-25T22:05:43.414Z,73.27
2019-03-25T22:08:13.047Z,73.39
2019-03-25T22:10:43.198Z,73.49
2019-03-25T22:13:13.066Z,73.71
2019-03-25T22:15:42.661Z,73.96
2019-03-25T22:18:12.285Z,74.12
2019-03-25T22:20:41.889Z,74.26
2019-03-25T22:23:11.508Z,74.36
2019-03-25T22:25:41.115Z,74.49
2019-03-25T22:28:10.760Z,74.62
2019-03-25T22:30:40.354Z,74.72
2019-03-25T22:33:09.984Z,74.82
2019-03-25T22:35:39.581Z,74.84
2019-03-25T22:38:09.036Z,74.81
2019-03-25T22:40:38.631Z,74.86
2019-03-25T22:43:08.647Z,74.88
2019-03-25T22:45:38.237Z,74.86
2019-03-25T22:48:07.872Z,74.80
2019-03-25T22:50:37.476Z,74.76
2019-03-25T22:53:07.104Z,74.75
2019-03-25T22:55:36.632Z,74.72
2019-03-25T22:58:06.253Z,74.70
2019-03-25T23:00:42.210Z,74.64
2019-03-25T23:03:11.750Z,74.64
2019-03-25T23:05:41.345Z,74.55
2019-03-25T23:08:11.062Z,74.38
2019-03-25T23:10:40.657Z,74.31
2019-03-25T23:13:10.275Z,74.14
2019-03-25T23:15:39.871Z,73.96
2019-03-25T23:18:09.514Z,73.91
2019-03-25T23:20:39.124Z,73.88
2019-03-25T23:23:08.743Z,73.74
2019-03-25T23:25:38.348Z,73.60
2019-03-25T23:28:07.966Z,73.46
2019-03-25T23:30:37.565Z,73.42
2019-03-25T23:33:07.187Z,73.25
2019-03-25T23:35:36.711Z,73.17
2019-03-25T23:38:06.335Z,73.03
2019-03-25T23:40:35.939Z,72.84
2019-03-25T23:43:05.667Z,72.82
2019-03-25T23:45:35.247Z,72.64
2019-03-25T23:48:04.864Z,72.59
2019-03-25T23:50:34.460Z,72.45
2019-03-25T23:53:04.073Z,72.42
2019-03-25T23:55:33.673Z,72.42
2019-03-25T23:58:03.221Z,72.45
